Time;durP1;ratioP1;P1;durP2;ratioP2;P2;SDS_P1;SDS_P2;PMS_P1;PMS_P2;Temp;Humidity;BMP_temperature;BMP_pressure;BME280_temperature;BME280_humidity;BME280_pressure;Samples;Min_cycle;Max_cycle;Signal;HPM_P1;HPM_P2
2022/09/19 00:00:22;;;;;;;;;;;;;;;;;;1885193;28;7093;-69
2022/09/19 00:01:21;;;;;;;;;;;;;;;;;;1887104;28;7010;-68
2022/09/19 00:02:18;;;;;;;;;;;;;;;;;;1888990;28;7148;-69
2022/09/19 00:03:16;;;;;;;;;;;;;;;;;;1889184;28;7092;-68
2022/09/19 00:04:18;;;;;;;;;;;;;;;;;;1889044;28;7025;-68
2022/09/19 00:05:15;;;;;;;;;;;;;;;;;;1884698;28;7092;-70
2022/09/19 00:06:14;;;;;;;;;;;;;;;;;;1889117;28;7046;-68
2022/09/19 00:07:11;;;;;;;;;;;;;;;;;;1888940;28;7042;-68
2022/09/19 00:08:09;;;;;;;;;;;;;;;;;;1887764;28;7100;-69
2022/09/19 00:09:09;;;;;;;;;;;;;;;;;;1885883;28;7006;-68
2022/09/19 00:10:06;;;;;;;;;;;;;;;;;;1886489;28;7913;-68
2022/09/19 00:11:06;;;;;;;;;;;;;;;;;;1883123;28;7041;-67
2022/09/19 00:12:03;;;;;;;;;;;;;;;;;;1884911;28;7014;-69
2022/09/19 00:13:00;;;;;;;;;;;;;;;;;;1881570;28;7010;-69
2022/09/19 00:13:59;;;;;;;;;;;;;;;;;;1889851;28;7141;-70
2022/09/19 00:14:57;;;;;;;;;;;;;;;;;;1896620;28;7006;-69
2022/09/19 00:15:54;;;;;;;;;;;;;;;;;;1896510;28;7344;-68
2022/09/19 00:16:56;;;;;;;;;;;;;;;;;;1896949;28;7237;-69
2022/09/19 00:17:53;;;;;;;;;;;;;;;;;;1896512;28;7092;-68
2022/09/19 00:18:52;;;;;;;;;;;;;;;;;;1896114;28;7010;-69
2022/09/19 00:19:49;;;;;;;;;;;;;;;;;;1895705;28;7109;-70
2022/09/19 00:20:49;;;;;;;;;;;;;;;;;;1895749;28;8119;-68
2022/09/19 00:21:48;;;;;;;;;;;;;;;;;;1895193;28;8060;-69
2022/09/19 00:24:45;;;;;;;;;;;;;;;;;;1896602;28;7006;-67
2022/09/19 00:25:21;;;;;;;;;;;;;;;;;;1892725;28;7260;-68
2022/09/19 00:26:20;;;;;;;;;;;;;;;;;;1895761;28;7013;-67
2022/09/19 00:27:22;;;;;;;;;;;;;;;;;;1895066;28;7022;-66
2022/09/19 00:28:19;;;;;;;;;;;;;;;;;;1896278;28;7017;-68
2022/09/19 00:29:17;;;;;;;;;;;;;;;;;;1895587;28;7017;-68
2022/09/19 00:30:14;;;;;;;;;;;;;;;;;;1896728;28;7010;-70
2022/09/19 00:31:19;;;;;;;;;;;;;;;;;;1896935;28;7042;-67
2022/09/19 00:32:16;;;;;;;;;;;;;;;;;;1896991;28;7010;-68
2022/09/19 00:33:14;;;;;;;;;;;;;;;;;;1896497;28;7153;-70
2022/09/19 00:34:12;;;;;;;;;;;;;;;;;;1897763;28;7171;-67
2022/09/19 00:35:10;;;;;;;;;;;;;;;;;;1898207;28;7009;-68
2022/09/19 00:36:07;;;;;;;;;;;;;;;;;;1897753;28;7018;-68
2022/09/19 00:37:05;;;;;;;;;;;;;;;;;;1898313;28;7009;-67
2022/09/19 00:38:02;;;;;;;;;;;;;;;;;;1898305;28;7117;-67
2022/09/19 00:39:00;;;;;;;;;;;;;;;;;;1898454;28;7010;-67
2022/09/19 00:39:57;;;;;;;;;;;;;;;;;;1897447;28;7005;-68
2022/09/19 00:40:55;;;;;;;;;;;;;;;;;;1890018;28;7005;-68
2022/09/19 00:41:53;;;;;;;;;;;;;;;;;;1896152;28;7010;-69
2022/09/19 00:42:50;;;;;;;;;;;;;;;;;;1897471;28;7006;-67
2022/09/19 00:43:50;;;;;;;;;;;;;;;;;;1898241;28;7202;-69
2022/09/19 00:45:06;;;;;;;;;;;;;;;;;;1896673;28;7125;-68
2022/09/19 00:46:03;;;;;;;;;;;;;;;;;;1897884;28;7017;-68
2022/09/19 00:47:09;;;;;;;;;;;;;;;;;;1897975;28;7092;-67
2022/09/19 00:48:08;;;;;;;;;;;;;;;;;;1897067;28;7084;-69
2022/09/19 00:49:13;;;;;;;;;;;;;;;;;;1897915;28;7092;-68
2022/09/19 00:50:15;;;;;;;;;;;;;;;;;;1897995;28;8027;-68
2022/09/19 00:51:17;;;;;;;;;;;;;;;;;;1897657;28;7005;-68
2022/09/19 00:52:19;;;;;;;;;;;;;;;;;;1898206;28;8063;-67
2022/09/19 00:53:20;;;;;;;;;;;;;;;;;;1897926;28;7034;-67
2022/09/19 00:54:24;;;;;;;;;;;;;;;;;;1897758;28;7089;-69
2022/09/19 00:55:21;;;;;;;;;;;;;;;;;;1897921;28;7009;-67
2022/09/19 00:56:19;;;;;;;;;;;;;;;;;;1898162;28;7053;-66
2022/09/19 00:57:17;;;;;;;;;;;;;;;;;;1897843;28;7009;-68
2022/09/19 00:58:32;;;;;;;;;;;;;;;;;;1897125;28;7100;-67
2022/09/19 00:59:33;;;;;;;;;;;;;;;;;;1896014;28;8067;-67
2022/09/19 01:00:32;;;;;;;;;;;;;;;;;;1897947;28;7013;-69
2022/09/19 01:01:30;;;;;;;;;;;;;;;;;;1897766;28;8250;-68
2022/09/19 01:02:28;;;;;;;;;;;;;;;;;;1896980;28;7064;-69
2022/09/19 01:03:27;;;;;;;;;;;;;;;;;;1897896;28;7121;-68
2022/09/19 01:04:35;;;;;;;;;;;;;;;;;;1897077;28;7108;-67
2022/09/19 01:05:46;;;;;;;;;;;;;;;;;;1897123;28;7117;-68
2022/09/19 01:06:43;;;;;;;;;;;;;;;;;;1897719;28;7013;-69
2022/09/19 01:07:54;;;;;;;;;;;;;;;;;;1897186;28;7034;-69
2022/09/19 01:09:00;;;;;;;;;;;;;;;;;;1897880;28;7323;-69
2022/09/19 01:10:00;;;;;;;;;;;;;;;;;;1897659;28;8076;-68
2022/09/19 01:11:10;;;;;;;;;;;;;;;;;;1897772;28;7100;-67
2022/09/19 01:12:17;;;;;;;;;;;;;;;;;;1896812;28;7112;-71
2022/09/19 01:13:20;;;;;;;;;;;;;;;;;;1897147;28;7013;-69
2022/09/19 01:14:39;;;;;;;;;;;;;;;;;;1896186;28;7116;-67
2022/09/19 01:15:40;;;;;;;;;;;;;;;;;;1896361;28;7010;-68
2022/09/19 01:16:41;;;;;;;;;;;;;;;;;;1897532;28;7092;-68
2022/09/19 01:17:45;;;;;;;;;;;;;;;;;;1897505;28;7014;-68
2022/09/19 01:18:47;;;;;;;;;;;;;;;;;;1897855;28;7042;-69
2022/09/19 01:19:53;;;;;;;;;;;;;;;;;;1897431;28;7132;-68
2022/09/19 01:21:37;;;;;;;;;;;;;;;;;;1897701;28;7036;-69
2022/09/19 01:22:27;;;;;;;;;;;;;;;;;;1897305;28;7108;-67
2022/09/19 01:23:35;;;;;;;;;;;;;;;;;;1898117;28;7339;-67
2022/09/19 01:24:42;;;;;;;;;;;;;;;;;;1897475;28;7002;-66
2022/09/19 01:25:59;;;;;;;;;;;;;;;;;;1897700;28;7085;-69
2022/09/19 01:27:05;;;;;;;;;;;;;;;;;;1867845;29;7177;-69
2022/09/19 01:28:11;;;;;;;;;;;;;;;;;;1893599;28;7317;-69
2022/09/19 01:29:16;;;;;;;;;;;;;;;;;;1897706;28;7100;-69
2022/09/19 01:30:15;;;;;;;;;;;;;;;;;;1897740;28;7010;-67
2022/09/19 01:31:17;;;;;;;;;;;;;;;;;;1897836;28;7148;-67
2022/09/19 01:32:18;;;;;;;;;;;;;;;;;;1898168;28;7006;-66
2022/09/19 01:33:18;;;;;;;;;;;;;;;;;;1897868;28;7009;-69
2022/09/19 01:34:24;;;;;;;;;;;;;;;;;;1897184;28;7727;-68
2022/09/19 01:35:28;;;;;;;;;;;;;;;;;;1897120;28;7025;-66
2022/09/19 01:36:32;;;;;;;;;;;;;;;;;;1897689;28;7081;-67
2022/09/19 01:37:37;;;;;;;;;;;;;;;;;;1897059;28;7014;-68
2022/09/19 01:38:39;;;;;;;;;;;;;;;;;;1897343;28;7013;-67
2022/09/19 01:39:39;;;;;;;;;;;;;;;;;;1897452;28;7093;-67
2022/09/19 01:40:37;;;;;;;;;;;;;;;;;;1896461;28;7325;-68
2022/09/19 01:41:35;;;;;;;;;;;;;;;;;;1897904;28;7042;-70
2022/09/19 01:42:32;;;;;;;;;;;;;;;;;;1890015;28;7010;-68
2022/09/19 01:43:29;;;;;;;;;;;;;;;;;;1889303;28;7017;-66
2022/09/19 01:44:28;;;;;;;;;;;;;;;;;;1897085;28;7021;-69
2022/09/19 01:45:31;;;;;;;;;;;;;;;;;;1896353;28;7006;-66
2022/09/19 01:46:54;;;;;;;;;;;;;;;;;;1897753;28;7105;-69
2022/09/19 01:48:10;;;;;;;;;;;;;;;;;;1867177;28;7010;-68
2022/09/19 01:49:17;;;;;;;;;;;;;;;;;;1896652;28;7066;-67
2022/09/19 01:50:23;;;;;;;;;;;;;;;;;;1897412;28;7006;-68
2022/09/19 01:51:28;;;;;;;;;;;;;;;;;;1897305;28;8097;-67
2022/09/19 01:52:27;;;;;;;;;;;;;;;;;;1897145;28;7042;-67
2022/09/19 01:53:34;;;;;;;;;;;;;;;;;;1897223;28;7013;-69
2022/09/19 01:54:54;;;;;;;;;;;;;;;;;;1889735;28;7317;-68
2022/09/19 01:56:11;;;;;;;;;;;;;;;;;;1889727;28;7010;-66
2022/09/19 01:57:20;;;;;;;;;;;;;;;;;;1898049;28;7022;-67
2022/09/19 01:58:17;;;;;;;;;;;;;;;;;;1897811;28;7013;-69
2022/09/19 01:59:24;;;;;;;;;;;;;;;;;;1897363;28;7054;-69
2022/09/19 02:00:24;;;;;;;;;;;;;;;;;;1897315;28;7093;-69
2022/09/19 02:01:21;;;;;;;;;;;;;;;;;;1897471;28;7006;-68
2022/09/19 02:02:22;;;;;;;;;;;;;;;;;;1897383;28;7010;-69
2022/09/19 02:03:28;;;;;;;;;;;;;;;;;;1897570;28;7029;-68
2022/09/19 02:04:41;;;;;;;;;;;;;;;;;;1897770;28;7237;-69
2022/09/19 02:05:51;;;;;;;;;;;;;;;;;;1897553;28;7009;-68
2022/09/19 02:06:58;;;;;;;;;;;;;;;;;;1897613;28;7112;-69
2022/09/19 02:08:04;;;;;;;;;;;;;;;;;;1897718;28;7021;-69
2022/09/19 02:09:08;;;;;;;;;;;;;;;;;;1897549;28;7513;-68
2022/09/19 02:10:10;;;;;;;;;;;;;;;;;;1897135;28;7010;-69
2022/09/19 02:11:11;;;;;;;;;;;;;;;;;;1896931;28;7009;-68
2022/09/19 02:12:12;;;;;;;;;;;;;;;;;;1897165;28;7105;-68
2022/09/19 02:13:11;;;;;;;;;;;;;;;;;;1897126;28;7010;-67
2022/09/19 02:14:16;;;;;;;;;;;;;;;;;;1896669;28;7006;-69
2022/09/19 02:15:17;;;;;;;;;;;;;;;;;;1897511;28;7252;-68
2022/09/19 02:16:21;;;;;;;;;;;;;;;;;;1896986;28;7038;-68
2022/09/19 02:17:23;;;;;;;;;;;;;;;;;;1897204;28;7002;-68
2022/09/19 02:18:41;;;;;;;;;;;;;;;;;;1897047;28;7494;-69
2022/09/19 02:19:38;;;;;;;;;;;;;;;;;;1894169;28;7125;-68
2022/09/19 02:20:39;;;;;;;;;;;;;;;;;;1897677;28;7009;-69
2022/09/19 02:21:48;;;;;;;;;;;;;;;;;;1897469;28;7077;-67
2022/09/19 02:22:49;;;;;;;;;;;;;;;;;;1896818;28;7120;-69
2022/09/19 02:23:49;;;;;;;;;;;;;;;;;;1896564;28;7089;-69
2022/09/19 02:24:51;;;;;;;;;;;;;;;;;;1896962;28;7030;-68
2022/09/19 02:25:51;;;;;;;;;;;;;;;;;;1897204;28;8039;-68
2022/09/19 02:26:51;;;;;;;;;;;;;;;;;;1897255;28;8035;-69
2022/09/19 02:27:59;;;;;;;;;;;;;;;;;;1896858;28;7093;-66
2022/09/19 02:28:59;;;;;;;;;;;;;;;;;;1897307;28;7002;-68
2022/09/19 02:30:01;;;;;;;;;;;;;;;;;;1897373;28;7331;-69
2022/09/19 02:30:59;;;;;;;;;;;;;;;;;;1896402;28;7010;-68
2022/09/19 02:31:57;;;;;;;;;;;;;;;;;;1896881;28;7005;-68
2022/09/19 02:32:55;;;;;;;;;;;;;;;;;;1896163;28;7006;-68
2022/09/19 02:33:55;;;;;;;;;;;;;;;;;;1896464;28;7010;-67
2022/09/19 02:34:55;;;;;;;;;;;;;;;;;;1889132;28;7034;-68
2022/09/19 02:36:01;;;;;;;;;;;;;;;;;;1895312;28;7109;-68
2022/09/19 02:37:02;;;;;;;;;;;;;;;;;;1897189;28;7101;-67
2022/09/19 02:38:09;;;;;;;;;;;;;;;;;;1895721;28;7009;-67
2022/09/19 02:39:16;;;;;;;;;;;;;;;;;;1897322;28;7061;-70
2022/09/19 02:40:22;;;;;;;;;;;;;;;;;;1896519;28;7005;-66
2022/09/19 02:41:28;;;;;;;;;;;;;;;;;;1897103;28;7006;-67
2022/09/19 02:42:29;;;;;;;;;;;;;;;;;;1897322;28;7017;-68
2022/09/19 02:43:36;;;;;;;;;;;;;;;;;;1897117;28;7093;-67
2022/09/19 02:44:52;;;;;;;;;;;;;;;;;;1897126;28;7002;-68
2022/09/19 02:45:54;;;;;;;;;;;;;;;;;;1903861;28;7002;-68
2022/09/19 02:47:02;;;;;;;;;;;;;;;;;;1900580;28;8106;-68
2022/09/19 02:48:11;;;;;;;;;;;;;;;;;;1897290;28;7025;-68
2022/09/19 02:49:27;;;;;;;;;;;;;;;;;;1897267;28;7120;-68
2022/09/19 02:50:31;;;;;;;;;;;;;;;;;;1897221;28;7005;-67
2022/09/19 02:51:34;;;;;;;;;;;;;;;;;;1897444;28;7093;-68
2022/09/19 02:52:33;;;;;;;;;;;;;;;;;;1896684;28;7001;-67
2022/09/19 02:53:38;;;;;;;;;;;;;;;;;;1897078;28;7022;-68
2022/09/19 02:54:42;;;;;;;;;;;;;;;;;;1897212;28;8095;-67
2022/09/19 02:55:46;;;;;;;;;;;;;;;;;;1896962;28;7104;-69
2022/09/19 02:56:45;;;;;;;;;;;;;;;;;;1897417;28;7054;-69
2022/09/19 02:57:45;;;;;;;;;;;;;;;;;;1896076;28;7108;-66
2022/09/19 02:58:51;;;;;;;;;;;;;;;;;;1895807;28;7010;-70
2022/09/19 02:59:52;;;;;;;;;;;;;;;;;;1897216;28;7010;-68
2022/09/19 03:00:53;;;;;;;;;;;;;;;;;;1896742;28;7034;-67
2022/09/19 03:01:54;;;;;;;;;;;;;;;;;;1897177;28;7324;-68
2022/09/19 03:02:57;;;;;;;;;;;;;;;;;;1896350;28;7301;-65
2022/09/19 03:04:14;;;;;;;;;;;;;;;;;;1895777;28;7101;-66
2022/09/19 03:05:15;;;;;;;;;;;;;;;;;;1897082;28;7021;-69
2022/09/19 03:06:16;;;;;;;;;;;;;;;;;;1896549;28;7088;-66
2022/09/19 03:07:13;;;;;;;;;;;;;;;;;;1896211;28;7013;-67
2022/09/19 03:08:15;;;;;;;;;;;;;;;;;;1896634;28;7196;-65
2022/09/19 03:09:16;;;;;;;;;;;;;;;;;;1897333;28;7984;-68
2022/09/19 03:10:20;;;;;;;;;;;;;;;;;;1896906;28;7113;-69
2022/09/19 03:11:20;;;;;;;;;;;;;;;;;;1896523;28;7037;-68
2022/09/19 03:12:26;;;;;;;;;;;;;;;;;;1897152;28;7860;-69
2022/09/19 03:13:24;;;;;;;;;;;;;;;;;;1894297;28;7009;-70
2022/09/19 03:14:22;;;;;;;;;;;;;;;;;;1882217;28;7022;-69
2022/09/19 03:15:25;;;;;;;;;;;;;;;;;;1882633;28;7352;-67
2022/09/19 03:16:26;;;;;;;;;;;;;;;;;;1882410;28;7006;-68
2022/09/19 03:17:30;;;;;;;;;;;;;;;;;;1882164;28;8022;-67
2022/09/19 03:18:30;;;;;;;;;;;;;;;;;;1889073;28;7209;-70
2022/09/19 03:19:30;;;;;;;;;;;;;;;;;;1885063;28;7336;-68
2022/09/19 03:20:27;;;;;;;;;;;;;;;;;;1888299;28;8121;-67
2022/09/19 03:21:26;;;;;;;;;;;;;;;;;;1875104;28;7968;-68
2022/09/19 03:22:25;;;;;;;;;;;;;;;;;;1874423;28;7097;-67
2022/09/19 03:23:28;;;;;;;;;;;;;;;;;;1887251;28;7022;-66
2022/09/19 03:24:26;;;;;;;;;;;;;;;;;;1889183;28;7033;-69
2022/09/19 03:25:27;;;;;;;;;;;;;;;;;;1889548;28;7009;-66
2022/09/19 03:26:28;;;;;;;;;;;;;;;;;;1888847;28;7281;-66
2022/09/19 03:27:25;;;;;;;;;;;;;;;;;;1882315;28;7088;-68
2022/09/19 03:28:22;;;;;;;;;;;;;;;;;;1881467;28;7096;-69
2022/09/19 03:29:20;;;;;;;;;;;;;;;;;;1880954;28;7014;-70
2022/09/19 03:30:17;;;;;;;;;;;;;;;;;;1888039;28;7046;-68
2022/09/19 03:31:17;;;;;;;;;;;;;;;;;;1889318;28;8044;-67
2022/09/19 03:32:15;;;;;;;;;;;;;;;;;;1889019;28;8056;-68
2022/09/19 03:33:15;;;;;;;;;;;;;;;;;;1888366;28;7006;-69
2022/09/19 03:34:13;;;;;;;;;;;;;;;;;;1889422;28;7005;-68
2022/09/19 03:35:10;;;;;;;;;;;;;;;;;;1889053;28;7157;-68
2022/09/19 03:36:08;;;;;;;;;;;;;;;;;;1888836;28;7063;-68
2022/09/19 03:37:05;;;;;;;;;;;;;;;;;;1889112;28;7124;-68
2022/09/19 03:38:02;;;;;;;;;;;;;;;;;;1882882;28;7093;-67
2022/09/19 03:39:01;;;;;;;;;;;;;;;;;;1882059;28;7154;-67
2022/09/19 03:39:59;;;;;;;;;;;;;;;;;;1881836;28;7093;-68
2022/09/19 03:40:56;;;;;;;;;;;;;;;;;;1885444;28;7010;-68
2022/09/19 03:41:54;;;;;;;;;;;;;;;;;;1888877;28;7006;-67
2022/09/19 03:42:52;;;;;;;;;;;;;;;;;;1889135;28;7025;-65
2022/09/19 03:43:50;;;;;;;;;;;;;;;;;;1889238;28;7042;-66
2022/09/19 03:44:48;;;;;;;;;;;;;;;;;;1888925;28;7047;-68
2022/09/19 03:45:45;;;;;;;;;;;;;;;;;;1888854;28;7372;-69
2022/09/19 03:46:46;;;;;;;;;;;;;;;;;;1887213;28;7092;-67
2022/09/19 03:47:44;;;;;;;;;;;;;;;;;;1883802;28;7317;-67
2022/09/19 03:48:44;;;;;;;;;;;;;;;;;;1881883;28;7014;-68
2022/09/19 03:49:41;;;;;;;;;;;;;;;;;;1882458;28;7093;-69
2022/09/19 03:50:39;;;;;;;;;;;;;;;;;;1882025;28;8048;-67
2022/09/19 03:51:37;;;;;;;;;;;;;;;;;;1888896;28;7340;-67
2022/09/19 03:52:34;;;;;;;;;;;;;;;;;;1886714;28;7009;-69
2022/09/19 03:53:32;;;;;;;;;;;;;;;;;;1880209;28;7033;-67
2022/09/19 03:54:29;;;;;;;;;;;;;;;;;;1879694;28;7081;-68
2022/09/19 03:55:27;;;;;;;;;;;;;;;;;;1887662;28;7030;-68
2022/09/19 03:56:24;;;;;;;;;;;;;;;;;;1887412;28;7264;-68
2022/09/19 03:57:22;;;;;;;;;;;;;;;;;;1882159;28;7093;-68
2022/09/19 03:58:19;;;;;;;;;;;;;;;;;;1882045;28;7002;-69
2022/09/19 03:59:16;;;;;;;;;;;;;;;;;;1882117;28;7096;-67
2022/09/19 04:00:14;;;;;;;;;;;;;;;;;;1882132;28;7026;-68
2022/09/19 04:01:15;;;;;;;;;;;;;;;;;;1885605;28;7109;-69
2022/09/19 04:02:17;;;;;;;;;;;;;;;;;;1882260;28;7006;-67
2022/09/19 04:03:15;;;;;;;;;;;;;;;;;;1885760;28;7120;-70
2022/09/19 04:04:12;;;;;;;;;;;;;;;;;;1889204;28;7002;-69
2022/09/19 04:05:12;;;;;;;;;;;;;;;;;;1885677;28;7006;-68
2022/09/19 04:06:10;;;;;;;;;;;;;;;;;;1882266;28;7326;-68
2022/09/19 04:07:07;;;;;;;;;;;;;;;;;;1887809;28;8007;-69
2022/09/19 04:08:05;;;;;;;;;;;;;;;;;;1888796;28;7006;-68
2022/09/19 04:09:03;;;;;;;;;;;;;;;;;;1887702;28;7788;-70
2022/09/19 04:10:00;;;;;;;;;;;;;;;;;;1875587;28;7320;-68
2022/09/19 04:10:58;;;;;;;;;;;;;;;;;;1875820;28;7002;-69
2022/09/19 04:11:56;;;;;;;;;;;;;;;;;;1886744;28;7360;-68
2022/09/19 04:12:53;;;;;;;;;;;;;;;;;;1882410;28;7010;-67
2022/09/19 04:13:52;;;;;;;;;;;;;;;;;;1885583;28;7039;-67
2022/09/19 04:14:50;;;;;;;;;;;;;;;;;;1881947;28;7093;-69
2022/09/19 04:15:49;;;;;;;;;;;;;;;;;;1885768;28;7975;-69
2022/09/19 04:16:46;;;;;;;;;;;;;;;;;;1878825;28;7116;-69
2022/09/19 04:18:04;;;;;;;;;;;;;;;;;;1882634;28;7002;-67
2022/09/19 04:19:01;;;;;;;;;;;;;;;;;;1882327;28;7325;-68
2022/09/19 04:19:59;;;;;;;;;;;;;;;;;;1885588;28;7106;-69
2022/09/19 04:20:56;;;;;;;;;;;;;;;;;;1885621;28;7022;-68
2022/09/19 04:21:54;;;;;;;;;;;;;;;;;;1889251;28;7002;-68
2022/09/19 04:22:51;;;;;;;;;;;;;;;;;;1874939;28;7014;-67
2022/09/19 04:23:48;;;;;;;;;;;;;;;;;;1878066;28;7120;-69
2022/09/19 04:24:45;;;;;;;;;;;;;;;;;;1885317;28;7001;-67
2022/09/19 04:25:46;;;;;;;;;;;;;;;;;;1889821;28;7070;-68
2022/09/19 04:26:44;;;;;;;;;;;;;;;;;;1889344;28;7034;-68
2022/09/19 04:27:41;;;;;;;;;;;;;;;;;;1888585;28;7010;-68
2022/09/19 04:28:39;;;;;;;;;;;;;;;;;;1889253;28;7010;-68
2022/09/19 04:29:36;;;;;;;;;;;;;;;;;;1888945;28;8131;-67
2022/09/19 04:30:35;;;;;;;;;;;;;;;;;;1883803;28;7118;-69
2022/09/19 04:31:39;;;;;;;;;;;;;;;;;;1888074;28;7006;-69
2022/09/19 04:32:39;;;;;;;;;;;;;;;;;;1878570;28;7148;-66
2022/09/19 04:33:37;;;;;;;;;;;;;;;;;;1874384;28;7089;-68
2022/09/19 04:34:34;;;;;;;;;;;;;;;;;;1881551;28;7109;-69
2022/09/19 04:35:34;;;;;;;;;;;;;;;;;;1882284;28;8112;-67
2022/09/19 04:36:33;;;;;;;;;;;;;;;;;;1887759;28;7781;-69
2022/09/19 04:37:30;;;;;;;;;;;;;;;;;;1889595;28;7033;-68
2022/09/19 04:38:30;;;;;;;;;;;;;;;;;;1888862;28;7109;-68
2022/09/19 04:39:28;;;;;;;;;;;;;;;;;;1889431;28;7176;-69
2022/09/19 04:40:25;;;;;;;;;;;;;;;;;;1888816;28;7006;-68
2022/09/19 04:41:23;;;;;;;;;;;;;;;;;;1889605;28;7005;-69
2022/09/19 04:42:20;;;;;;;;;;;;;;;;;;1888644;28;7002;-69
2022/09/19 04:43:18;;;;;;;;;;;;;;;;;;1889736;28;7096;-67
2022/09/19 04:44:16;;;;;;;;;;;;;;;;;;1889446;28;7001;-67
2022/09/19 04:45:20;;;;;;;;;;;;;;;;;;1888766;28;7010;-68
2022/09/19 04:46:21;;;;;;;;;;;;;;;;;;1888987;28;7086;-69
2022/09/19 04:47:18;;;;;;;;;;;;;;;;;;1883653;28;7312;-69
2022/09/19 04:48:16;;;;;;;;;;;;;;;;;;1889271;28;7233;-65
2022/09/19 04:49:14;;;;;;;;;;;;;;;;;;1881790;28;7022;-69
2022/09/19 04:50:11;;;;;;;;;;;;;;;;;;1888341;28;7038;-68
2022/09/19 04:51:09;;;;;;;;;;;;;;;;;;1888864;28;7017;-67
2022/09/19 04:52:09;;;;;;;;;;;;;;;;;;1889334;28;7118;-69
2022/09/19 04:53:07;;;;;;;;;;;;;;;;;;1874273;28;7005;-68
2022/09/19 04:54:05;;;;;;;;;;;;;;;;;;1880981;28;7010;-67
2022/09/19 04:55:02;;;;;;;;;;;;;;;;;;1885848;28;7156;-67
2022/09/19 04:55:59;;;;;;;;;;;;;;;;;;1882572;28;7014;-68
2022/09/19 04:56:57;;;;;;;;;;;;;;;;;;1886172;28;7124;-66
2022/09/19 04:57:55;;;;;;;;;;;;;;;;;;1888527;28;7039;-68
2022/09/19 04:58:52;;;;;;;;;;;;;;;;;;1889211;28;7010;-68
2022/09/19 04:59:50;;;;;;;;;;;;;;;;;;1884336;28;7006;-69
2022/09/19 05:00:53;;;;;;;;;;;;;;;;;;1881892;28;7025;-68
2022/09/19 05:01:51;;;;;;;;;;;;;;;;;;1887842;28;7010;-67
2022/09/19 05:02:56;;;;;;;;;;;;;;;;;;1887737;28;8035;-67
2022/09/19 05:03:54;;;;;;;;;;;;;;;;;;1883704;28;7097;-67
2022/09/19 05:04:51;;;;;;;;;;;;;;;;;;1882232;28;7125;-68
2022/09/19 05:05:51;;;;;;;;;;;;;;;;;;1886939;28;7348;-68
2022/09/19 05:06:49;;;;;;;;;;;;;;;;;;1889011;28;7010;-68
2022/09/19 05:07:46;;;;;;;;;;;;;;;;;;1889617;28;7847;-68
2022/09/19 05:08:43;;;;;;;;;;;;;;;;;;1889468;28;7022;-69
2022/09/19 05:09:43;;;;;;;;;;;;;;;;;;1888577;28;7079;-67
2022/09/19 05:10:42;;;;;;;;;;;;;;;;;;1888957;28;7105;-68
2022/09/19 05:11:46;;;;;;;;;;;;;;;;;;1889161;28;8075;-67
2022/09/19 05:12:43;;;;;;;;;;;;;;;;;;1883817;28;7013;-69
2022/09/19 05:13:41;;;;;;;;;;;;;;;;;;1884200;28;7013;-68
2022/09/19 05:14:39;;;;;;;;;;;;;;;;;;1881563;28;7117;-68
2022/09/19 05:15:38;;;;;;;;;;;;;;;;;;1881193;28;7042;-67
2022/09/19 05:16:36;;;;;;;;;;;;;;;;;;1881972;28;7106;-69
2022/09/19 05:17:33;;;;;;;;;;;;;;;;;;1881763;28;7110;-69
2022/09/19 05:18:37;;;;;;;;;;;;;;;;;;1882202;28;7113;-68
2022/09/19 05:19:36;;;;;;;;;;;;;;;;;;1888456;28;7285;-66
2022/09/19 05:20:35;;;;;;;;;;;;;;;;;;1882187;28;7010;-70
2022/09/19 05:21:33;;;;;;;;;;;;;;;;;;1888788;28;9402;-69
2022/09/19 05:22:30;;;;;;;;;;;;;;;;;;1885611;28;7010;-68
2022/09/19 05:23:29;;;;;;;;;;;;;;;;;;1883292;28;7046;-69
2022/09/19 05:24:26;;;;;;;;;;;;;;;;;;1882752;28;7248;-68
2022/09/19 05:25:24;;;;;;;;;;;;;;;;;;1882463;28;7171;-70
2022/09/19 05:26:22;;;;;;;;;;;;;;;;;;1883209;28;7309;-68
2022/09/19 05:27:19;;;;;;;;;;;;;;;;;;1883310;28;7038;-67
2022/09/19 05:28:19;;;;;;;;;;;;;;;;;;1882773;28;7109;-68
2022/09/19 05:29:17;;;;;;;;;;;;;;;;;;1882324;28;7101;-67
2022/09/19 05:30:14;;;;;;;;;;;;;;;;;;1882893;28;7097;-67
2022/09/19 05:31:12;;;;;;;;;;;;;;;;;;1889085;28;7014;-67
2022/09/19 05:32:10;;;;;;;;;;;;;;;;;;1889284;28;7010;-69
2022/09/19 05:33:07;;;;;;;;;;;;;;;;;;1890519;28;7097;-67
2022/09/19 05:34:05;;;;;;;;;;;;;;;;;;1890095;28;7010;-68
2022/09/19 05:35:02;;;;;;;;;;;;;;;;;;1890097;28;7044;-67
2022/09/19 05:36:01;;;;;;;;;;;;;;;;;;1890597;28;7100;-69
2022/09/19 05:36:58;;;;;;;;;;;;;;;;;;1890101;28;7014;-69
2022/09/19 05:37:57;;;;;;;;;;;;;;;;;;1888733;28;7010;-69
2022/09/19 05:38:54;;;;;;;;;;;;;;;;;;1882887;28;7025;-69
2022/09/19 05:39:52;;;;;;;;;;;;;;;;;;1875535;28;7092;-69
2022/09/19 05:40:55;;;;;;;;;;;;;;;;;;1878368;28;7010;-67
2022/09/19 05:41:53;;;;;;;;;;;;;;;;;;1885648;28;7010;-69
2022/09/19 05:42:51;;;;;;;;;;;;;;;;;;1890286;28;7013;-69
2022/09/19 05:43:48;;;;;;;;;;;;;;;;;;1886698;28;7258;-70
2022/09/19 05:44:46;;;;;;;;;;;;;;;;;;1883152;28;7034;-70
2022/09/19 05:45:44;;;;;;;;;;;;;;;;;;1883087;28;7030;-68
2022/09/19 05:46:42;;;;;;;;;;;;;;;;;;1889026;28;7006;-68
2022/09/19 05:47:39;;;;;;;;;;;;;;;;;;1882458;28;8012;-70
2022/09/19 05:48:37;;;;;;;;;;;;;;;;;;1878960;28;7042;-69
2022/09/19 05:49:35;;;;;;;;;;;;;;;;;;1876430;28;7006;-69
2022/09/19 05:50:33;;;;;;;;;;;;;;;;;;1877621;28;7237;-69
2022/09/19 05:51:30;;;;;;;;;;;;;;;;;;1882183;28;7006;-67
2022/09/19 05:53:52;;;;;;;;;;;;;;;;;;1889615;28;7005;-68
2022/09/19 05:54:50;;;;;;;;;;;;;;;;;;1890050;28;7092;-67
2022/09/19 05:55:48;;;;;;;;;;;;;;;;;;1890546;28;8091;-67
2022/09/19 05:56:50;;;;;;;;;;;;;;;;;;1889157;28;7014;-69
2022/09/19 05:57:51;;;;;;;;;;;;;;;;;;1890586;28;7046;-69
2022/09/19 05:58:51;;;;;;;;;;;;;;;;;;1890412;28;7038;-67
2022/09/19 05:59:48;;;;;;;;;;;;;;;;;;1890074;28;7093;-68
2022/09/19 06:00:46;;;;;;;;;;;;;;;;;;1890016;28;7010;-68
2022/09/19 06:01:43;;;;;;;;;;;;;;;;;;1887829;28;7001;-70
2022/09/19 06:02:41;;;;;;;;;;;;;;;;;;1883785;28;7569;-67
2022/09/19 06:03:39;;;;;;;;;;;;;;;;;;1883431;28;7005;-67
2022/09/19 06:04:36;;;;;;;;;;;;;;;;;;1889221;28;7009;-70
2022/09/19 06:05:40;;;;;;;;;;;;;;;;;;1890250;28;8048;-67
2022/09/19 06:06:38;;;;;;;;;;;;;;;;;;1883187;28;7010;-67
2022/09/19 06:07:36;;;;;;;;;;;;;;;;;;1889127;28;7002;-68
2022/09/19 06:08:33;;;;;;;;;;;;;;;;;;1890337;28;7098;-69
2022/09/19 06:09:31;;;;;;;;;;;;;;;;;;1889045;28;7037;-68
2022/09/19 06:10:28;;;;;;;;;;;;;;;;;;1884278;28;7249;-68
2022/09/19 06:11:26;;;;;;;;;;;;;;;;;;1875509;28;7038;-69
2022/09/19 06:12:23;;;;;;;;;;;;;;;;;;1874705;28;7006;-68
2022/09/19 06:13:22;;;;;;;;;;;;;;;;;;1888665;28;8047;-69
2022/09/19 06:14:22;;;;;;;;;;;;;;;;;;1888497;28;7044;-68
2022/09/19 06:15:19;;;;;;;;;;;;;;;;;;1890158;28;8108;-68
2022/09/19 06:16:17;;;;;;;;;;;;;;;;;;1889655;28;7088;-68
2022/09/19 06:17:16;;;;;;;;;;;;;;;;;;1890175;28;8024;-68
2022/09/19 06:18:14;;;;;;;;;;;;;;;;;;1876387;28;7120;-68
2022/09/19 06:19:11;;;;;;;;;;;;;;;;;;1875228;28;8036;-68
2022/09/19 06:20:08;;;;;;;;;;;;;;;;;;1882833;28;7058;-70
2022/09/19 06:21:07;;;;;;;;;;;;;;;;;;1882990;28;7073;-68
2022/09/19 06:22:05;;;;;;;;;;;;;;;;;;1888995;28;7317;-67
2022/09/19 06:23:04;;;;;;;;;;;;;;;;;;1888576;28;7134;-68
2022/09/19 06:24:01;;;;;;;;;;;;;;;;;;1886329;28;7335;-67
2022/09/19 06:24:59;;;;;;;;;;;;;;;;;;1883845;28;7013;-68
2022/09/19 06:25:57;;;;;;;;;;;;;;;;;;1878292;28;7014;-69
2022/09/19 06:26:55;;;;;;;;;;;;;;;;;;1880828;28;7340;-69
2022/09/19 06:27:56;;;;;;;;;;;;;;;;;;1874098;28;7231;-68
2022/09/19 06:28:54;;;;;;;;;;;;;;;;;;1880166;28;7041;-69
2022/09/19 06:29:51;;;;;;;;;;;;;;;;;;1882195;28;7010;-70
2022/09/19 06:30:48;;;;;;;;;;;;;;;;;;1882547;28;7026;-68
2022/09/19 06:31:46;;;;;;;;;;;;;;;;;;1883170;28;7093;-68
2022/09/19 06:32:43;;;;;;;;;;;;;;;;;;1882610;28;7047;-68
2022/09/19 06:33:42;;;;;;;;;;;;;;;;;;1882925;28;7309;-68
2022/09/19 06:34:40;;;;;;;;;;;;;;;;;;1883271;28;7093;-68
2022/09/19 06:35:55;;;;;;;;;;;;;;;;;;1881742;28;7002;-69
2022/09/19 06:36:53;;;;;;;;;;;;;;;;;;1882484;28;7005;-70
2022/09/19 06:37:57;;;;;;;;;;;;;;;;;;1874661;28;7006;-68
2022/09/19 06:38:54;;;;;;;;;;;;;;;;;;1881297;28;7109;-70
2022/09/19 06:39:51;;;;;;;;;;;;;;;;;;1889881;28;7399;-70
2022/09/19 06:40:49;;;;;;;;;;;;;;;;;;1889391;28;7384;-68
2022/09/19 06:41:47;;;;;;;;;;;;;;;;;;1889845;28;7034;-68
2022/09/19 06:42:44;;;;;;;;;;;;;;;;;;1882974;28;7022;-70
2022/09/19 06:43:42;;;;;;;;;;;;;;;;;;1884944;28;7026;-68
2022/09/19 06:44:39;;;;;;;;;;;;;;;;;;1889739;28;7428;-68
2022/09/19 06:45:40;;;;;;;;;;;;;;;;;;1889393;28;7042;-70
2022/09/19 06:46:37;;;;;;;;;;;;;;;;;;1883339;28;7026;-69
2022/09/19 06:47:35;;;;;;;;;;;;;;;;;;1874923;28;7120;-69
2022/09/19 06:48:34;;;;;;;;;;;;;;;;;;1881942;28;7067;-69
2022/09/19 06:49:32;;;;;;;;;;;;;;;;;;1889144;28;7042;-68
2022/09/19 06:50:30;;;;;;;;;;;;;;;;;;1882255;28;7307;-68
2022/09/19 06:51:29;;;;;;;;;;;;;;;;;;1881635;28;7006;-67
2022/09/19 06:52:26;;;;;;;;;;;;;;;;;;1876318;28;7093;-68
2022/09/19 06:53:24;;;;;;;;;;;;;;;;;;1884084;28;7209;-70
2022/09/19 06:54:22;;;;;;;;;;;;;;;;;;1883102;28;7029;-68
2022/09/19 06:55:19;;;;;;;;;;;;;;;;;;1882827;28;7092;-70
2022/09/19 06:56:16;;;;;;;;;;;;;;;;;;1889150;28;7092;-67
2022/09/19 06:57:15;;;;;;;;;;;;;;;;;;1890105;28;7112;-69
2022/09/19 06:58:12;;;;;;;;;;;;;;;;;;1889910;28;7002;-67
2022/09/19 06:59:10;;;;;;;;;;;;;;;;;;1889805;28;7089;-68
2022/09/19 07:00:08;;;;;;;;;;;;;;;;;;1888294;28;8036;-69
2022/09/19 07:01:07;;;;;;;;;;;;;;;;;;1882306;28;7096;-70
2022/09/19 07:02:05;;;;;;;;;;;;;;;;;;1881764;28;7014;-68